Time;durP1;ratioP1;P1;durP2;ratioP2;P2;SDS_P1;SDS_P2;PMS_P1;PMS_P2;Temp;Humidity;BMP_temperature;BMP_pressure;BME280_temperature;BME280_humidity;BME280_pressure;Samples;Min_cycle;Max_cycle;Signal;HPM_P1;HPM_P2
2023/10/22 00:02:12;;;;;;;1.67;0.43;;;13.80;99.90;;;;;;5060082;28;20055;-79
2023/10/22 00:04:39;;;;;;;2.58;0.30;;;13.80;99.90;;;;;;5043002;28;20074;-79
2023/10/22 00:07:06;;;;;;;2.28;0.50;;;13.80;99.90;;;;;;5058064;28;20044;-77
2023/10/22 00:09:33;;;;;;;2.25;0.30;;;13.80;99.90;;;;;;5061187;28;20035;-78
2023/10/22 00:12:00;;;;;;;1.25;0.30;;;13.80;99.90;;;;;;5043730;28;20410;-80
2023/10/22 00:14:26;;;;;;;2.63;0.40;;;13.70;99.90;;;;;;5040130;28;20402;-79
2023/10/22 00:16:53;;;;;;;2.63;0.30;;;13.70;99.90;;;;;;5058475;28;20680;-80
2023/10/22 00:19:19;;;;;;;1.88;0.30;;;13.70;99.90;;;;;;5056575;28;20047;-79
2023/10/22 00:21:46;;;;;;;1.45;0.30;;;13.70;99.90;;;;;;5058991;28;20044;-80
2023/10/22 00:24:12;;;;;;;1.73;0.22;;;13.70;99.90;;;;;;5078201;28;20375;-79
2023/10/22 00:26:39;;;;;;;1.55;0.22;;;13.60;99.90;;;;;;5078267;28;20043;-80
2023/10/22 00:29:07;;;;;;;4.63;0.40;;;13.70;99.90;;;;;;5040887;28;20470;-79
2023/10/22 00:31:33;;;;;;;1.30;0.30;;;13.70;99.90;;;;;;5078564;28;20038;-80
2023/10/22 00:34:00;;;;;;;2.17;0.30;;;13.70;99.90;;;;;;5075538;28;20036;-79
2023/10/22 00:36:26;;;;;;;2.30;0.40;;;13.70;99.90;;;;;;5041911;28;20546;-79
2023/10/22 00:38:53;;;;;;;0.95;0.30;;;13.70;99.90;;;;;;5042828;28;20256;-80
2023/10/22 00:41:19;;;;;;;1.15;0.30;;;13.70;99.90;;;;;;5040344;28;20048;-78
2023/10/22 00:43:46;;;;;;;3.65;0.32;;;13.70;99.90;;;;;;5060260;28;20360;-78
2023/10/22 00:46:23;;;;;;;1.67;0.30;;;13.70;99.90;;;;;;5060082;28;20043;-80
2023/10/22 00:48:50;;;;;;;1.90;0.30;;;13.70;99.90;;;;;;5057116;28;20035;-80
2023/10/22 00:51:17;;;;;;;2.53;0.30;;;13.70;99.90;;;;;;5068342;28;20461;-78
2023/10/22 00:53:45;;;;;;;1.52;0.30;;;13.70;99.90;;;;;;5057840;28;20039;-79
2023/10/22 00:56:12;;;;;;;2.30;0.47;;;13.70;99.90;;;;;;5026477;28;20052;-79
2023/10/22 00:58:40;;;;;;;1.70;0.43;;;13.70;99.90;;;;;;5037734;28;20036;-79
2023/10/22 01:01:08;;;;;;;4.35;0.50;;;13.70;99.90;;;;;;5035530;28;20484;-78
2023/10/22 01:03:38;;;;;;;1.50;0.25;;;13.70;99.90;;;;;;5041008;28;20379;-80
2023/10/22 01:06:05;;;;;;;3.15;0.40;;;13.70;99.90;;;;;;5040294;28;20062;-78
2023/10/22 01:08:33;;;;;;;3.72;0.50;;;13.70;99.90;;;;;;5055688;28;20043;-79
2023/10/22 01:11:07;;;;;;;2.53;0.20;;;13.70;99.90;;;;;;5042105;28;20052;-79
2023/10/22 01:13:35;;;;;;;2.08;0.30;;;13.70;99.90;;;;;;5057331;28;20032;-80
2023/10/22 01:16:02;;;;;;;3.70;0.30;;;13.70;99.90;;;;;;5080685;28;20031;-78
2023/10/22 01:18:29;;;;;;;2.70;0.40;;;13.60;99.90;;;;;;5041833;28;20036;-79
2023/10/22 01:20:55;;;;;;;1.50;0.40;;;13.60;99.90;;;;;;5041857;28;20278;-80
2023/10/22 01:23:23;;;;;;;1.27;0.30;;;13.50;99.90;;;;;;5053066;28;20047;-81
2023/10/22 01:25:50;;;;;;;4.82;0.68;;;13.50;99.90;;;;;;5048669;28;20044;-79
2023/10/22 01:28:17;;;;;;;2.75;0.30;;;13.50;99.90;;;;;;5075987;28;20047;-80
2023/10/22 01:30:43;;;;;;;1.30;0.30;;;13.40;99.90;;;;;;5043338;28;20043;-81
2023/10/22 01:33:10;;;;;;;3.10;0.63;;;13.50;99.90;;;;;;5060502;28;20043;-80
2023/10/22 01:35:37;;;;;;;4.50;0.50;;;13.50;99.90;;;;;;5079624;28;20595;-79
2023/10/22 01:38:03;;;;;;;2.30;0.40;;;13.40;99.90;;;;;;5044358;28;20070;-81
2023/10/22 01:40:30;;;;;;;1.98;0.52;;;13.50;99.90;;;;;;5064163;28;20038;-80
2023/10/22 01:42:56;;;;;;;3.25;0.40;;;13.50;99.90;;;;;;5057328;28;20031;-80
2023/10/22 01:45:24;;;;;;;2.35;0.20;;;13.50;99.90;;;;;;5064111;28;20040;-81
2023/10/22 01:47:50;;;;;;;2.40;0.40;;;13.50;99.90;;;;;;5027810;28;20063;-81
2023/10/22 01:50:17;;;;;;;4.07;0.52;;;13.50;99.90;;;;;;5082224;28;20035;-80
2023/10/22 01:52:43;;;;;;;4.35;0.50;;;13.50;99.90;;;;;;5056584;28;20036;-80
2023/10/22 01:55:09;;;;;;;1.52;0.30;;;13.50;99.90;;;;;;5045086;28;20052;-81
2023/10/22 01:57:36;;;;;;;2.22;0.30;;;13.50;99.90;;;;;;5046500;28;20048;-81
2023/10/22 02:00:03;;;;;;;1.67;0.45;;;13.50;99.90;;;;;;5080451;28;20040;-80
2023/10/22 02:02:38;;;;;;;1.38;0.30;;;13.50;99.90;;;;;;5059374;28;20032;-80
2023/10/22 02:05:05;;;;;;;3.33;0.57;;;13.50;99.90;;;;;;5042998;28;20028;-80
2023/10/22 02:07:31;;;;;;;2.05;0.30;;;13.50;99.90;;;;;;5082348;28;20047;-79
2023/10/22 02:09:58;;;;;;;1.58;0.30;;;13.50;99.90;;;;;;5041883;28;20421;-81
2023/10/22 02:12:28;;;;;;;2.67;0.40;;;13.40;99.90;;;;;;5046912;28;20418;-81
2023/10/22 02:14:55;;;;;;;2.33;0.20;;;13.40;99.90;;;;;;5063015;28;20052;-81
2023/10/22 02:17:21;;;;;;;3.75;0.55;;;13.40;99.90;;;;;;5043189;28;20489;-80
2023/10/22 02:19:48;;;;;;;1.42;0.30;;;13.40;99.90;;;;;;5029449;28;20055;-80
2023/10/22 02:22:16;;;;;;;2.53;0.40;;;13.30;99.90;;;;;;5081319;28;20031;-78
2023/10/22 02:24:43;;;;;;;3.50;0.30;;;13.30;99.90;;;;;;5081154;28;20040;-81
2023/10/22 02:27:09;;;;;;;2.45;0.35;;;13.20;99.90;;;;;;5044106;28;20454;-80
2023/10/22 02:29:36;;;;;;;2.72;0.47;;;13.10;99.90;;;;;;5079313;28;20607;-79
2023/10/22 02:32:04;;;;;;;2.30;0.38;;;13.00;99.90;;;;;;5061323;28;20044;-80
2023/10/22 02:34:31;;;;;;;3.47;0.60;;;12.90;99.90;;;;;;5055603;28;20467;-79
2023/10/22 02:36:58;;;;;;;3.05;0.60;;;12.80;99.90;;;;;;5045274;28;20043;-80
2023/10/22 02:39:25;;;;;;;1.90;0.40;;;12.80;99.90;;;;;;5060481;28;20048;-80
2023/10/22 02:41:51;;;;;;;3.45;0.40;;;12.70;99.90;;;;;;5062182;28;20040;-79
2023/10/22 02:44:17;;;;;;;4.20;0.50;;;12.70;99.90;;;;;;5044256;28;20039;-80
2023/10/22 02:46:44;;;;;;;1.27;0.40;;;12.60;99.90;;;;;;5063539;28;20032;-79
2023/10/22 02:49:10;;;;;;;3.30;0.40;;;12.60;99.90;;;;;;5062739;28;20343;-80
2023/10/22 02:51:36;;;;;;;4.75;0.70;;;12.60;99.90;;;;;;5079794;28;20028;-79
2023/10/22 02:54:03;;;;;;;3.47;0.63;;;12.60;99.90;;;;;;5061565;28;20066;-80
2023/10/22 02:56:29;;;;;;;5.88;0.80;;;12.50;99.90;;;;;;5046256;28;20038;-79
2023/10/22 02:58:56;;;;;;;3.63;0.77;;;12.50;99.90;;;;;;5041087;28;20032;-79
2023/10/22 03:01:23;;;;;;;3.45;0.70;;;12.50;99.90;;;;;;5079140;28;20051;-80
2023/10/22 03:03:49;;;;;;;2.30;1.20;;;12.50;99.90;;;;;;5044013;28;20036;-80
2023/10/22 03:06:16;;;;;;;2.58;0.68;;;12.50;99.90;;;;;;5059811;28;20035;-79
2023/10/22 03:08:42;;;;;;;3.88;0.50;;;12.50;99.90;;;;;;5073325;28;20052;-79
2023/10/22 03:11:16;;;;;;;5.53;1.77;;;12.50;99.90;;;;;;5042875;28;20051;-80
2023/10/22 03:13:43;;;;;;;3.65;0.80;;;12.50;99.90;;;;;;5044448;28;20048;-80
2023/10/22 03:16:12;;;;;;;2.60;0.80;;;12.40;99.90;;;;;;5060869;28;20054;-79
2023/10/22 03:18:40;;;;;;;5.45;1.02;;;12.40;99.90;;;;;;5059589;28;20032;-79
2023/10/22 03:21:14;;;;;;;3.33;0.70;;;12.40;99.90;;;;;;5043979;28;20639;-79
2023/10/22 03:23:41;;;;;;;3.97;0.73;;;12.40;99.90;;;;;;5041947;28;20059;-80
2023/10/22 03:26:08;;;;;;;3.67;1.17;;;12.40;99.90;;;;;;5059135;28;20032;-80
2023/10/22 03:28:36;;;;;;;5.57;1.00;;;12.40;99.90;;;;;;5042511;28;20041;-80
2023/10/22 03:31:03;;;;;;;7.25;1.63;;;12.40;99.90;;;;;;5078865;28;21472;-79
2023/10/22 03:33:33;;;;;;;4.20;1.45;;;12.50;99.90;;;;;;5058774;28;20044;-80
2023/10/22 03:36:00;;;;;;;4.07;1.25;;;12.50;99.90;;;;;;5040529;28;20035;-80
2023/10/22 03:38:27;;;;;;;5.57;1.10;;;12.50;99.90;;;;;;5077940;28;20028;-79
2023/10/22 03:41:04;;;;;;;4.70;0.88;;;12.40;99.90;;;;;;5077861;28;20040;-79
2023/10/22 03:43:31;;;;;;;2.05;0.80;;;12.40;99.90;;;;;;5074322;28;20032;-79
2023/10/22 03:45:59;;;;;;;5.38;1.20;;;12.40;99.90;;;;;;5044597;28;20042;-80
2023/10/22 03:48:27;;;;;;;3.35;1.10;;;12.40;99.90;;;;;;5042296;28;20673;-79
2023/10/22 03:50:54;;;;;;;3.13;1.05;;;12.40;99.90;;;;;;5043838;28;20048;-80
2023/10/22 03:53:23;;;;;;;3.47;1.50;;;12.40;99.90;;;;;;5041787;28;20040;-79
2023/10/22 03:55:50;;;;;;;5.78;1.30;;;12.40;99.90;;;;;;5041891;28;20043;-80
2023/10/22 03:58:17;;;;;;;4.97;1.13;;;12.40;99.90;;;;;;5058784;28;20039;-80
2023/10/22 04:00:43;;;;;;;4.80;1.35;;;12.40;99.90;;;;;;5044513;28;20062;-80
2023/10/22 04:03:09;;;;;;;4.78;1.77;;;12.40;99.90;;;;;;5041790;28;20059;-80
2023/10/22 04:05:36;;;;;;;4.57;1.73;;;12.30;99.90;;;;;;5026005;28;20371;-80
2023/10/22 04:08:03;;;;;;;5.55;2.50;;;12.30;99.90;;;;;;5058663;28;20035;-81
2023/10/22 04:10:29;;;;;;;4.47;1.95;;;12.40;99.90;;;;;;5041656;28;20051;-80
2023/10/22 04:12:55;;;;;;;5.03;2.28;;;12.30;99.90;;;;;;5059825;28;20889;-80
2023/10/22 04:15:21;;;;;;;5.70;2.40;;;12.30;99.90;;;;;;5060183;28;20493;-80
2023/10/22 04:17:48;;;;;;;3.72;2.65;;;12.30;99.90;;;;;;5026312;28;20040;-79
2023/10/22 04:20:15;;;;;;;3.95;2.45;;;12.30;99.90;;;;;;5059930;28;20036;-81
2023/10/22 04:22:43;;;;;;;3.88;2.42;;;12.30;99.90;;;;;;5041076;28;20055;-80
2023/10/22 04:25:10;;;;;;;4.07;2.80;;;12.30;99.90;;;;;;5058210;28;20051;-80
2023/10/22 04:27:36;;;;;;;4.68;3.20;;;12.30;99.90;;;;;;5058501;28;20039;-80
2023/10/22 04:30:07;;;;;;;4.38;3.08;;;12.30;99.90;;;;;;5039432;28;20039;-80
2023/10/22 04:32:34;;;;;;;4.57;3.40;;;12.30;99.90;;;;;;5041129;28;20059;-79
2023/10/22 04:35:01;;;;;;;3.90;3.22;;;12.30;99.90;;;;;;5056696;28;20048;-80
2023/10/22 04:37:28;;;;;;;7.63;4.43;;;12.30;99.90;;;;;;5058310;28;20139;-80
2023/10/22 04:39:57;;;;;;;4.43;4.00;;;12.20;99.90;;;;;;5041667;28;20052;-80
2023/10/22 04:42:24;;;;;;;4.80;3.85;;;12.20;99.90;;;;;;5039621;28;20036;-80
2023/10/22 04:44:50;;;;;;;5.20;3.67;;;12.20;99.90;;;;;;5079515;28;20036;-79
2023/10/22 04:47:17;;;;;;;5.28;3.80;;;12.20;99.90;;;;;;5057125;28;20051;-80
2023/10/22 04:49:44;;;;;;;5.90;4.50;;;12.20;99.90;;;;;;5054385;28;20048;-79
2023/10/22 04:52:17;;;;;;;7.00;4.57;;;12.10;99.90;;;;;;5037078;28;20066;-80
2023/10/22 04:54:43;;;;;;;5.40;4.60;;;12.10;99.90;;;;;;5036109;28;20044;-80
2023/10/22 04:57:10;;;;;;;4.68;3.85;;;12.10;99.90;;;;;;5040973;28;20036;-80
2023/10/22 04:59:36;;;;;;;4.72;3.70;;;12.10;99.90;;;;;;5056921;28;20044;-80
2023/10/22 05:02:02;;;;;;;5.88;3.88;;;12.10;99.90;;;;;;5057848;28;20048;-80
2023/10/22 05:04:29;;;;;;;5.97;4.25;;;12.10;99.90;;;;;;5040582;28;20134;-80
2023/10/22 05:06:56;;;;;;;4.90;4.43;;;12.10;99.90;;;;;;5060836;28;20615;-80
2023/10/22 05:09:23;;;;;;;4.00;3.45;;;12.10;99.90;;;;;;5044776;28;20048;-80
2023/10/22 05:11:49;;;;;;;4.03;3.70;;;12.10;99.90;;;;;;5078549;28;20147;-81
2023/10/22 05:14:16;;;;;;;4.35;3.80;;;12.10;99.90;;;;;;5047049;28;20550;-80
2023/10/22 05:16:42;;;;;;;4.80;4.05;;;12.10;99.90;;;;;;5044050;28;20048;-80
2023/10/22 05:19:08;;;;;;;5.30;4.70;;;12.20;99.90;;;;;;5046818;28;20394;-80
2023/10/22 05:21:37;;;;;;;5.13;4.63;;;12.20;99.90;;;;;;5044858;28;20047;-80
2023/10/22 05:24:04;;;;;;;8.30;5.47;;;12.20;99.90;;;;;;5047905;28;20044;-79
2023/10/22 05:26:30;;;;;;;6.88;4.40;;;12.20;99.90;;;;;;5061396;28;20051;-79
2023/10/22 05:28:57;;;;;;;9.32;6.95;;;12.20;99.90;;;;;;5027062;28;20032;-80
2023/10/22 05:31:23;;;;;;;12.60;9.20;;;12.20;99.90;;;;;;5061714;28;20071;-80
2023/10/22 05:33:50;;;;;;;13.82;9.15;;;12.20;99.90;;;;;;5046250;28;20050;-80
2023/10/22 05:36:19;;;;;;;12.00;9.32;;;12.20;99.90;;;;;;5060938;28;20786;-80
2023/10/22 05:38:46;;;;;;;10.55;9.45;;;12.20;99.90;;;;;;5060362;28;20028;-80
2023/10/22 05:41:23;;;;;;;13.55;10.07;;;12.20;99.90;;;;;;5047422;28;20386;-81
2023/10/22 05:43:51;;;;;;;10.93;9.05;;;12.20;99.90;;;;;;5046303;28;20024;-80
2023/10/22 05:46:17;;;;;;;9.90;8.82;;;12.10;99.90;;;;;;5062543;28;20359;-80
2023/10/22 05:48:44;;;;;;;14.05;9.88;;;12.10;99.90;;;;;;5063585;28;20028;-80
2023/10/22 05:51:10;;;;;;;10.93;9.07;;;12.10;99.90;;;;;;5031058;28;20040;-80
2023/10/22 05:53:36;;;;;;;8.95;7.35;;;12.00;99.90;;;;;;5046699;28;20044;-81
2023/10/22 05:56:03;;;;;;;9.50;6.72;;;12.00;99.90;;;;;;5044466;28;20047;-80
2023/10/22 05:58:30;;;;;;;7.43;6.70;;;11.90;99.90;;;;;;5060078;28;20036;-80
2023/10/22 06:00:56;;;;;;;10.90;6.88;;;11.90;99.90;;;;;;5043655;28;20047;-80
2023/10/22 06:03:22;;;;;;;8.10;6.82;;;11.90;99.90;;;;;;5060838;28;20024;-80
2023/10/22 06:05:49;;;;;;;8.27;7.03;;;11.80;99.90;;;;;;5061010;28;20051;-80
2023/10/22 06:08:15;;;;;;;11.00;9.07;;;11.80;99.90;;;;;;5042516;28;20048;-80
2023/10/22 06:10:43;;;;;;;8.93;7.85;;;11.80;99.90;;;;;;5047877;28;20391;-80
2023/10/22 06:13:11;;;;;;;10.73;8.82;;;11.80;99.90;;;;;;5062625;28;20048;-80
2023/10/22 06:15:42;;;;;;;11.88;8.32;;;11.80;99.90;;;;;;5042905;28;20040;-80
2023/10/22 06:18:09;;;;;;;10.48;8.52;;;11.80;99.90;;;;;;5059072;28;20044;-80
2023/10/22 06:20:37;;;;;;;11.18;7.82;;;11.80;99.90;;;;;;5046339;28;20044;-80
2023/10/22 06:23:04;;;;;;;9.50;8.50;;;11.80;99.90;;;;;;5043832;28;20051;-81
2023/10/22 06:25:34;;;;;;;15.68;10.88;;;11.80;99.90;;;;;;5028622;28;20040;-81
2023/10/22 06:28:01;;;;;;;14.00;10.13;;;11.80;99.90;;;;;;5028626;28;20043;-80
2023/10/22 06:30:28;;;;;;;13.93;9.98;;;11.80;99.90;;;;;;5044339;28;20047;-81
2023/10/22 06:32:56;;;;;;;13.40;10.35;;;11.70;99.90;;;;;;5026786;28;20485;-80
2023/10/22 06:35:26;;;;;;;13.82;10.68;;;11.70;99.90;;;;;;5045422;28;20474;-81
2023/10/22 06:37:53;;;;;;;10.32;8.75;;;11.70;99.90;;;;;;5058661;28;20506;-86
2023/10/22 06:40:20;;;;;;;11.27;8.75;;;11.70;99.90;;;;;;5058686;28;20474;-84
2023/10/22 06:42:48;;;;;;;8.55;7.63;;;11.70;99.90;;;;;;5061317;28;20067;-81
2023/10/22 06:45:16;;;;;;;10.65;8.93;;;11.80;99.90;;;;;;5027304;28;20059;-81
2023/10/22 06:47:43;;;;;;;10.93;9.35;;;11.70;99.90;;;;;;5030226;28;20051;-81
2023/10/22 06:50:13;;;;;;;9.93;8.30;;;11.80;99.90;;;;;;5041879;28;20696;-80
2023/10/22 06:52:43;;;;;;;11.35;10.15;;;11.80;99.90;;;;;;5060336;28;20040;-85
2023/10/22 06:55:10;;;;;;;10.75;8.70;;;11.90;99.90;;;;;;5044030;28;20043;-83
2023/10/22 06:57:38;;;;;;;14.88;12.40;;;11.90;99.90;;;;;;5042989;28;20048;-85
2023/10/22 07:00:07;;;;;;;13.68;11.20;;;12.00;99.90;;;;;;5034089;28;20032;-87
2023/10/22 07:02:34;;;;;;;14.15;10.95;;;12.00;99.90;;;;;;5066203;28;20873;-87
2023/10/22 07:05:01;;;;;;;16.50;12.25;;;12.10;99.90;;;;;;5051134;28;20426;-83
2023/10/22 07:07:28;;;;;;;14.52;12.85;;;12.10;99.90;;;;;;5052331;28;20055;-84
2023/10/22 07:09:55;;;;;;;12.65;11.02;;;12.20;99.90;;;;;;5044377;28;20063;-82
2023/10/22 07:12:22;;;;;;;11.93;10.18;;;12.20;99.90;;;;;;5067551;28;20031;-82
2023/10/22 07:14:48;;;;;;;9.70;8.32;;;12.20;99.90;;;;;;5039330;28;20044;-90
2023/10/22 07:17:15;;;;;;;13.70;10.77;;;12.30;99.90;;;;;;5051569;28;20481;-87
2023/10/22 07:19:42;;;;;;;14.55;12.07;;;12.30;99.90;;;;;;5066760;28;20054;-86
2023/10/22 07:22:08;;;;;;;13.38;9.73;;;12.30;99.90;;;;;;5053486;28;20032;-87
2023/10/22 07:24:35;;;;;;;13.02;9.88;;;12.20;99.90;;;;;;5052374;28;20035;-86
2023/10/22 07:27:01;;;;;;;16.25;10.93;;;12.20;99.90;;;;;;5066063;28;20035;-84
2023/10/22 07:29:28;;;;;;;12.52;9.95;;;12.20;99.90;;;;;;5025344;28;20051;-83
2023/10/22 07:31:54;;;;;;;10.93;9.25;;;12.20;99.90;;;;;;5066373;28;20032;-88
2023/10/22 07:34:21;;;;;;;13.93;8.93;;;12.20;99.90;;;;;;5049537;28;20047;-85
2023/10/22 07:36:47;;;;;;;11.98;8.63;;;12.20;99.90;;;;;;5049452;28;20035;-82
2023/10/22 07:39:13;;;;;;;13.02;8.95;;;12.30;99.90;;;;;;5047274;28;20501;-84
2023/10/22 07:41:40;;;;;;;10.05;8.20;;;12.40;99.90;;;;;;5049702;28;20044;-84
2023/10/22 07:44:06;;;;;;;8.65;7.05;;;12.40;99.90;;;;;;5047008;28;20036;-84
2023/10/22 07:46:33;;;;;;;10.10;8.23;;;12.40;99.90;;;;;;5046211;28;20031;-84
2023/10/22 07:48:59;;;;;;;9.95;6.95;;;12.40;99.90;;;;;;5083240;28;20032;-85
2023/10/22 07:51:27;;;;;;;10.10;6.30;;;12.40;99.90;;;;;;5033629;28;20044;-83
2023/10/22 07:53:53;;;;;;;8.23;6.25;;;12.40;99.90;;;;;;5034189;28;20039;-85
2023/10/22 07:56:19;;;;;;;10.48;7.63;;;12.30;99.90;;;;;;5033877;28;20047;-85
2023/10/22 07:58:46;;;;;;;8.05;6.32;;;12.30;99.90;;;;;;5064694;28;20577;-82
2023/10/22 08:01:13;;;;;;;9.50;5.75;;;12.30;99.90;;;;;;5066480;28;20388;-84
2023/10/22 08:03:39;;;;;;;8.60;5.35;;;12.20;99.90;;;;;;5063745;28;20055;-84
2023/10/22 08:06:06;;;;;;;5.90;4.63;;;12.20;99.90;;;;;;5051868;28;20043;-83
2023/10/22 08:08:33;;;;;;;8.15;4.88;;;12.20;99.90;;;;;;5066179;28;20055;-81
2023/10/22 08:11:01;;;;;;;6.10;4.35;;;12.30;99.90;;;;;;5081341;28;20055;-83
2023/10/22 08:13:28;;;;;;;5.97;4.57;;;12.20;99.90;;;;;;5047727;28;20047;-83
2023/10/22 08:15:54;;;;;;;5.45;4.85;;;12.30;99.90;;;;;;5063316;28;20078;-82
2023/10/22 08:18:21;;;;;;;7.18;4.40;;;12.30;99.90;;;;;;5045405;28;20047;-82
2023/10/22 08:20:47;;;;;;;4.95;3.85;;;12.40;99.90;;;;;;5048894;28;20027;-82
2023/10/22 08:23:14;;;;;;;5.88;4.47;;;12.40;99.90;;;;;;5053361;28;20051;-82
2023/10/22 08:25:50;;;;;;;4.63;3.78;;;12.40;99.90;;;;;;5050147;28;20036;-81
2023/10/22 08:28:16;;;;;;;5.43;3.83;;;12.50;99.90;;;;;;5045803;28;20040;-82
2023/10/22 08:30:49;;;;;;;4.15;3.38;;;12.50;99.90;;;;;;5044995;28;20028;-82
2023/10/22 08:33:17;;;;;;;4.80;4.30;;;12.40;99.90;;;;;;5070151;28;20497;-83
2023/10/22 08:35:43;;;;;;;5.15;3.83;;;12.50;99.90;;;;;;5068515;28;20367;-83
2023/10/22 08:38:10;;;;;;;4.57;3.13;;;12.50;99.90;;;;;;5067695;28;20052;-82
2023/10/22 08:40:41;;;;;;;7.65;3.75;;;12.50;99.90;;;;;;5068062;28;20374;-82
2023/10/22 08:43:16;;;;;;;5.78;3.47;;;12.50;99.90;;;;;;5056923;28;20024;-82
2023/10/22 08:45:48;;;;;;;4.07;3.28;;;12.50;99.90;;;;;;5053789;28;20529;-82
2023/10/22 08:48:15;;;;;;;3.58;2.92;;;12.60;99.90;;;;;;5053877;28;20050;-83
2023/10/22 08:50:43;;;;;;;5.55;2.67;;;12.50;99.90;;;;;;5050396;28;20410;-82
2023/10/22 08:53:12;;;;;;;7.13;3.05;;;12.60;99.90;;;;;;5046448;28;20769;-83
2023/10/22 08:55:44;;;;;;;5.07;3.53;;;12.60;99.90;;;;;;5063917;28;20402;-83
2023/10/22 08:58:14;;;;;;;4.22;2.45;;;12.80;99.90;;;;;;5065348;28;20043;-83
2023/10/22 09:00:45;;;;;;;5.75;2.58;;;12.90;99.90;;;;;;5027482;28;20478;-83
2023/10/22 09:03:17;;;;;;;5.68;2.78;;;13.00;99.90;;;;;;5034169;28;20123;-83
2023/10/22 09:05:44;;;;;;;;;;;13.10;99.90;;;;;;5048993;28;20036;-82
2023/10/22 09:08:10;;;;;;;4.72;2.88;;;13.20;99.90;;;;;;5050149;28;19923;-83
2023/10/22 09:10:37;;;;;;;3.58;2.53;;;13.30;99.90;;;;;;5069216;28;20263;-83
2023/10/22 09:13:09;;;;;;;5.72;2.40;;;13.40;99.90;;;;;;5049285;28;23217;-82
2023/10/22 09:15:44;;;;;;;3.63;1.88;;;13.50;99.90;;;;;;5088671;28;20044;-83
2023/10/22 09:18:11;;;;;;;3.55;1.83;;;13.60;99.90;;;;;;5044304;28;20044;-83
2023/10/22 09:20:38;;;;;;;3.97;1.38;;;13.60;99.90;;;;;;5073825;28;20610;-85
2023/10/22 09:23:18;;;;;;;2.10;1.38;;;13.80;99.90;;;;;;5065533;28;20040;-83
2023/10/22 09:25:50;;;;;;;4.78;1.50;;;13.90;99.90;;;;;;5050280;28;20043;-81
2023/10/22 09:28:21;;;;;;;;;;;13.90;99.90;;;;;;5065076;28;20043;-81
2023/10/22 09:30:53;;;;;;;4.50;1.40;;;14.00;99.90;;;;;;5024981;28;19915;-82
2023/10/22 09:33:31;;;;;;;3.83;1.83;;;14.10;99.90;;;;;;5045974;28;20082;-81
2023/10/22 09:36:02;;;;;;;4.03;1.80;;;14.10;99.90;;;;;;5062890;28;20060;-82
2023/10/22 09:38:46;;;;;;;3.50;1.75;;;14.20;99.90;;;;;;5045696;28;20054;-82
2023/10/22 09:41:18;;;;;;;2.83;1.20;;;14.30;99.90;;;;;;5047969;28;20039;-83
2023/10/22 09:43:45;;;;;;;3.20;1.52;;;14.40;99.90;;;;;;5066200;28;20391;-82
2023/10/22 09:46:12;;;;;;;4.28;1.27;;;14.50;99.90;;;;;;5047859;28;20035;-83
2023/10/22 09:48:40;;;;;;;3.15;1.27;;;14.50;99.90;;;;;;5078418;28;20047;-85
2023/10/22 09:51:06;;;;;;;2.40;1.00;;;14.60;99.90;;;;;;5049843;28;20526;-83
2023/10/22 09:53:45;;;;;;;2.30;1.38;;;14.70;99.90;;;;;;5079514;28;20510;-83
2023/10/22 09:56:17;;;;;;;6.28;1.30;;;14.90;99.90;;;;;;5042783;28;20380;-84
2023/10/22 09:58:44;;;;;;;5.22;1.50;;;15.00;99.90;;;;;;5046266;28;21483;-84
2023/10/22 10:01:11;;;;;;;4.60;1.48;;;15.10;99.90;;;;;;5046580;28;20036;-84
2023/10/22 10:03:40;;;;;;;3.40;1.30;;;15.10;99.90;;;;;;5049109;28;20495;-84
2023/10/22 10:06:08;;;;;;;3.95;0.90;;;15.20;99.90;;;;;;5032192;28;20054;-85
2023/10/22 10:08:39;;;;;;;3.05;0.90;;;15.30;99.90;;;;;;5049113;28;20398;-83
2023/10/22 10:11:08;;;;;;;3.45;1.00;;;15.40;99.90;;;;;;5051970;28;20620;-84
2023/10/22 10:13:37;;;;;;;2.20;1.13;;;15.40;99.90;;;;;;5067811;28;20039;-86
2023/10/22 10:16:05;;;;;;;4.18;1.20;;;15.40;99.90;;;;;;5050688;28;20031;-85
2023/10/22 10:19:02;;;;;;;4.65;0.77;;;15.40;99.90;;;;;;5085430;28;20039;-85
2023/10/22 10:21:48;;;;;;;4.45;1.20;;;15.40;99.90;;;;;;5049725;28;20036;-84
2023/10/22 10:24:17;;;;;;;2.10;0.93;;;15.50;99.90;;;;;;5048507;28;20043;-85
2023/10/22 10:26:44;;;;;;;2.78;0.73;;;15.50;99.90;;;;;;5049468;28;20028;-84
2023/10/22 10:29:22;;;;;;;1.75;0.70;;;15.60;99.90;;;;;;5042525;28;20042;-84
2023/10/22 10:31:52;;;;;;;2.85;0.50;;;15.80;99.90;;;;;;5043448;28;20043;-84
2023/10/22 10:34:40;;;;;;;2.83;0.70;;;16.00;99.90;;;;;;5045550;28;20044;-84
2023/10/22 10:37:14;;;;;;;3.22;1.30;;;16.20;99.90;;;;;;5065255;28;20040;-82
2023/10/22 10:39:45;;;;;;;3.15;0.60;;;16.30;99.90;;;;;;5065356;28;20032;-82
2023/10/22 10:42:32;;;;;;;4.32;0.90;;;16.30;99.90;;;;;;5050685;28;20032;-84
2023/10/22 10:45:01;;;;;;;6.15;1.42;;;16.30;99.90;;;;;;5049659;28;20048;-86
2023/10/22 10:47:40;;;;;;;3.30;0.82;;;16.30;99.90;;;;;;5084312;28;20054;-85
2023/10/22 10:50:12;;;;;;;3.45;0.68;;;16.30;99.90;;;;;;5062497;28;20521;-85
2023/10/22 10:52:38;;;;;;;2.33;0.60;;;16.20;99.90;;;;;;5066534;28;20703;-85
2023/10/22 10:55:20;;;;;;;3.95;0.88;;;16.20;99.90;;;;;;5046872;28;20056;-85
2023/10/22 10:57:48;;;;;;;2.30;0.70;;;16.20;99.90;;;;;;5066704;28;20046;-84
2023/10/22 11:00:20;;;;;;;2.25;0.40;;;16.30;99.90;;;;;;5066433;28;20298;-83
2023/10/22 11:02:47;;;;;;;3.95;0.57;;;16.40;99.90;;;;;;5047720;28;20383;-84
2023/10/22 11:05:15;;;;;;;3.42;0.70;;;16.40;99.90;;;;;;5043831;28;20516;-83
2023/10/22 11:07:43;;;;;;;3.65;0.70;;;16.40;99.90;;;;;;5085939;28;20044;-84
2023/10/22 11:10:09;;;;;;;2.58;0.50;;;16.40;99.90;;;;;;5025423;28;20184;-83
2023/10/22 11:12:37;;;;;;;1.85;0.50;;;16.30;99.90;;;;;;5049530;28;20036;-83
2023/10/22 11:15:05;;;;;;;1.10;0.35;;;16.40;99.90;;;;;;5065774;28;20217;-84
2023/10/22 11:17:32;;;;;;;1.45;0.30;;;16.40;99.90;;;;;;5049061;28;20510;-85
2023/10/22 11:19:58;;;;;;;2.53;0.50;;;16.40;99.90;;;;;;5026763;28;20048;-83
2023/10/22 11:22:24;;;;;;;3.28;0.70;;;16.50;99.90;;;;;;5032577;28;20052;-83
2023/10/22 11:24:51;;;;;;;1.70;0.52;;;16.50;99.90;;;;;;5047819;28;20043;-81
2023/10/22 11:27:19;;;;;;;1.30;0.40;;;16.60;99.90;;;;;;5079490;28;20038;-83
2023/10/22 11:29:49;;;;;;;1.17;0.50;;;16.60;99.90;;;;;;5057393;28;20040;-82
2023/10/22 11:32:21;;;;;;;3.05;0.52;;;16.70;99.90;;;;;;5029493;28;20047;-83
2023/10/22 11:34:51;;;;;;;1.85;0.77;;;16.80;99.90;;;;;;5083841;28;20036;-84
2023/10/22 11:37:41;;;;;;;1.13;0.40;;;16.80;99.90;;;;;;5085921;28;20032;-85
2023/10/22 11:40:30;;;;;;;3.47;0.50;;;16.80;99.90;;;;;;5047242;28;20040;-84
2023/10/22 11:42:58;;;;;;;1.45;0.40;;;16.70;99.90;;;;;;5085915;28;21953;-85
2023/10/22 11:45:29;;;;;;;1.83;0.57;;;16.60;99.90;;;;;;5050951;28;20470;-87
2023/10/22 11:48:17;;;;;;;1.52;0.40;;;16.60;99.90;;;;;;5033014;28;20758;-85
2023/10/22 11:50:48;;;;;;;1.85;0.50;;;16.60;99.90;;;;;;5045259;28;20040;-86
2023/10/22 11:53:16;;;;;;;0.82;0.32;;;16.60;99.90;;;;;;5046251;28;20043;-85
2023/10/22 11:55:45;;;;;;;1.38;0.40;;;16.70;99.90;;;;;;5065949;28;20039;-82
2023/10/22 11:58:16;;;;;;;1.92;0.40;;;16.80;99.90;;;;;;5037554;28;20044;-85
2023/10/22 12:00:44;;;;;;;1.77;0.50;;;17.00;99.90;;;;;;5055118;28;20035;-85
2023/10/22 12:03:16;;;;;;;1.52;0.50;;;17.10;99.90;;;;;;5054999;28;20044;-83
2023/10/22 12:05:43;;;;;;;2.50;0.65;;;17.00;99.90;;;;;;5021762;28;20052;-85
2023/10/22 12:08:09;;;;;;;1.42;0.60;;;17.10;99.90;;;;;;5038972;28;20051;-85
2023/10/22 12:10:36;;;;;;;2.88;0.63;;;17.10;99.90;;;;;;5029116;28;20055;-86
2023/10/22 12:13:04;;;;;;;1.67;0.57;;;17.10;99.90;;;;;;5036552;28;20039;-85
2023/10/22 12:15:31;;;;;;;2.10;0.70;;;17.10;99.90;;;;;;5039902;28;20386;-87
2023/10/22 12:17:57;;;;;;;2.28;0.80;;;17.20;99.90;;;;;;5056357;28;20055;-86
2023/10/22 12:20:24;;;;;;;2.40;0.60;;;17.20;99.90;;;;;;5037850;28;20051;-84
2023/10/22 12:22:50;;;;;;;1.48;0.70;;;17.20;99.90;;;;;;5074616;28;20047;-83
2023/10/22 12:25:17;;;;;;;2.60;0.60;;;17.30;99.90;;;;;;5038053;28;20048;-85
2023/10/22 12:27:43;;;;;;;1.20;0.55;;;17.30;99.90;;;;;;5024193;28;20414;-86
2023/10/22 12:30:10;;;;;;;2.58;0.60;;;17.30;99.90;;;;;;5038166;28;20043;-86
2023/10/22 12:32:37;;;;;;;1.63;0.75;;;17.30;99.90;;;;;;5021525;28;21302;-84
2023/10/22 12:35:05;;;;;;;1.70;0.70;;;17.30;99.90;;;;;;5074547;28;20040;-85
2023/10/22 12:37:31;;;;;;;1.45;0.80;;;17.30;99.90;;;;;;5051708;28;20046;-84
2023/10/22 12:39:57;;;;;;;1.83;0.50;;;17.30;99.90;;;;;;5055051;28;20055;-84
2023/10/22 12:42:24;;;;;;;2.00;0.70;;;17.20;99.90;;;;;;5043269;28;20396;-85
2023/10/22 12:44:50;;;;;;;1.80;0.65;;;17.20;99.90;;;;;;5055757;28;20051;-86
2023/10/22 12:47:16;;;;;;;2.15;0.60;;;17.20;99.90;;;;;;5056379;28;20044;-86
2023/10/22 12:49:44;;;;;;;2.33;0.88;;;17.10;99.90;;;;;;5076999;28;20036;-86
2023/10/22 12:52:11;;;;;;;1.65;0.65;;;17.00;99.90;;;;;;5024710;28;20036;-85